Time;durP1;ratioP1;P1;durP2;ratioP2;P2;SDS_P1;SDS_P2;PMS_P1;PMS_P2;Temp;Humidity;BMP_temperature;BMP_pressure;BME280_temperature;BME280_humidity;BME280_pressure;Samples;Min_cycle;Max_cycle;Signal;HPM_P1;HPM_P2
2022/10/23 00:04:34;;;;;;;25.63;5.78;;;;;;;14.13;74.21;100379.69;10371304;28;20046;-63
2022/10/23 00:09:36;;;;;;;10.45;4.15;;;;;;;14.00;74.55;100385.81;10373978;28;20066;-63
2022/10/23 00:14:37;;;;;;;12.93;3.50;;;;;;;13.91;74.91;100390.53;10374343;28;20129;-61
2022/10/23 00:19:38;;;;;;;10.90;2.95;;;;;;;13.94;74.77;100392.88;10374649;28;20396;-60
2022/10/23 00:24:40;;;;;;;8.18;3.05;;;;;;;13.92;74.60;100394.94;10357330;28;20397;-61
2022/10/23 00:29:43;;;;;;;7.10;2.55;;;;;;;13.84;74.88;100390.50;10375095;28;20708;-61
2022/10/23 00:34:45;;;;;;;13.60;2.60;;;;;;;13.87;74.63;100384.69;10373689;28;20076;-60
2022/10/23 00:39:46;;;;;;;9.73;2.20;;;;;;;13.83;74.45;100390.69;10376104;28;20081;-64
2022/10/23 00:44:47;;;;;;;7.63;2.42;;;;;;;13.79;74.47;100384.84;10375680;28;20077;-60
2022/10/23 00:49:49;;;;;;;10.50;2.28;;;;;;;13.71;74.76;100382.28;10374443;28;20117;-61
2022/10/23 00:54:50;;;;;;;7.47;2.13;;;;;;;13.63;74.98;100369.75;10382291;28;20116;-59
2022/10/23 00:59:52;;;;;;;7.13;2.80;;;;;;;13.58;74.94;100358.69;10374262;28;20069;-61
2022/10/23 01:04:53;;;;;;;10.30;2.58;;;;;;;13.58;74.90;100356.00;10372039;28;20073;-62
2022/10/23 01:10:06;;;;;;;8.82;2.30;;;;;;;13.58;74.92;100347.91;10375006;28;20084;-61
2022/10/23 01:15:17;;;;;;;9.20;1.92;;;;;;;13.57;75.07;100340.00;10371080;28;20104;-60
2022/10/23 01:20:30;;;;;;;8.43;2.15;;;;;;;13.54;74.67;100335.81;10368753;28;20058;-62
2022/10/23 01:25:50;;;;;;;6.22;2.58;;;;;;;13.47;75.24;100341.19;10363188;28;20517;-62
2022/10/23 01:30:52;;;;;;;6.57;2.33;;;;;;;13.54;74.59;100340.38;10369621;28;20046;-64
2022/10/23 01:36:00;;;;;;;7.95;2.17;;;;;;;13.52;74.43;100353.25;10373064;28;20042;-62
2022/10/23 01:41:11;;;;;;;7.18;2.13;;;;;;;13.48;74.48;100342.00;10370655;28;20073;-64
2022/10/23 01:46:15;;;;;;;5.93;2.03;;;;;;;13.46;74.59;100326.00;10371753;28;20049;-61
2022/10/23 01:51:19;;;;;;;8.15;2.00;;;;;;;13.40;74.66;100328.66;10373173;28;20100;-63
2022/10/23 01:56:26;;;;;;;7.75;2.60;;;;;;;13.36;74.41;100320.09;10368981;28;20046;-61
2022/10/23 02:01:29;;;;;;;7.00;1.77;;;;;;;13.35;74.27;100318.44;10369489;28;20469;-62
2022/10/23 02:06:31;;;;;;;10.73;1.98;;;;;;;13.31;74.80;100311.75;10370734;28;20045;-60
2022/10/23 02:11:39;;;;;;;4.82;1.98;;;;;;;13.26;74.85;100309.59;10369121;28;20045;-62
2022/10/23 02:16:44;;;;;;;;;;;;;;;13.20;74.96;100304.16;10363139;28;20105;-63
2022/10/23 02:22:00;;;;;;;4.75;2.22;;;;;;;13.22;74.82;100292.13;10369376;28;19948;-62
2022/10/23 02:27:07;;;;;;;7.10;2.05;;;;;;;13.20;74.98;100288.78;10369403;28;20136;-63
2022/10/23 02:32:10;;;;;;;7.13;1.77;;;;;;;13.19;74.69;100289.81;10368896;28;20084;-62
2022/10/23 02:37:11;;;;;;;9.60;1.90;;;;;;;13.21;74.71;100293.16;10370218;28;20125;-60
2022/10/23 02:42:28;;;;;;;9.35;1.98;;;;;;;13.21;74.40;100285.06;10369954;28;20026;-64
2022/10/23 02:47:34;;;;;;;6.97;1.90;;;;;;;13.21;74.68;100268.88;10382816;28;20065;-60
2022/10/23 02:53:08;;;;;;;9.25;2.03;;;;;;;13.19;74.61;100253.88;10369860;28;20133;-63
2022/10/23 02:58:18;;;;;;;7.72;2.00;;;;;;;13.17;74.48;100256.81;10372363;28;20565;-61
2022/10/23 03:03:30;;;;;;;5.72;2.83;;;;;;;13.14;74.87;100270.66;10377161;28;20218;-62
2022/10/23 03:08:54;;;;;;;11.70;2.75;;;;;;;13.14;75.06;100273.38;10372662;28;20084;-61
2022/10/23 03:13:55;;;;;;;10.00;2.22;;;;;;;13.23;74.62;100272.22;10373871;28;20049;-65
2022/10/23 03:18:57;;;;;;;6.30;2.13;;;;;;;13.28;74.34;100266.22;10376121;28;20046;-61
2022/10/23 03:23:58;;;;;;;4.22;1.40;;;;;;;13.26;75.11;100255.59;10375897;28;20050;-61
2022/10/23 03:29:00;;;;;;;6.15;1.67;;;;;;;13.02;75.47;100273.06;10358606;28;20121;-60
2022/10/23 03:34:01;;;;;;;13.20;3.05;;;;;;;13.04;75.61;100264.78;10358821;28;20508;-61
2022/10/23 03:39:06;;;;;;;4.28;1.67;;;;;;;13.16;75.13;100259.69;10355917;28;20050;-60
2022/10/23 03:44:08;;;;;;;5.63;1.30;;;;;;;13.18;74.83;100263.03;10365201;28;20080;-60
2022/10/23 03:49:09;;;;;;;4.32;1.70;;;;;;;13.21;74.73;100254.53;10370216;28;20112;-63
2022/10/23 03:54:10;;;;;;;10.75;1.63;;;;;;;13.22;74.97;100250.81;10372023;28;20073;-60
2022/10/23 03:59:12;;;;;;;5.10;1.58;;;;;;;13.20;74.65;100232.09;10372498;28;20069;-61
2022/10/23 04:04:14;;;;;;;6.45;1.70;;;;;;;13.16;74.63;100246.19;10337433;28;20077;-62
2022/10/23 04:09:15;;;;;;;9.25;1.92;;;;;;;13.14;74.95;100264.44;10348671;28;20140;-61
2022/10/23 04:14:16;;;;;;;7.13;1.60;;;;;;;13.11;74.50;100268.34;10334225;28;20046;-63
2022/10/23 04:19:18;;;;;;;5.95;2.05;;;;;;;13.12;74.47;100263.81;10328397;28;20137;-62
2022/10/23 04:24:19;;;;;;;11.15;2.33;;;;;;;13.11;74.68;100254.84;10330444;28;20073;-61
2022/10/23 04:29:23;;;;;;;4.07;1.88;;;;;;;13.14;74.51;100256.34;10338307;28;20408;-60
2022/10/23 04:34:24;;;;;;;4.80;1.98;;;;;;;13.13;74.64;100268.16;10367371;28;20393;-62
2022/10/23 04:39:26;;;;;;;7.45;2.13;;;;;;;13.14;74.93;100267.97;10371523;28;20038;-64
2022/10/23 04:44:27;;;;;;;7.75;2.15;;;;;;;13.15;74.86;100256.16;10370395;28;20491;-61
2022/10/23 04:49:28;;;;;;;6.40;2.30;;;;;;;13.14;74.64;100259.88;10350962;28;20085;-60
2022/10/23 04:54:35;;;;;;;6.20;2.20;;;;;;;13.13;74.50;100249.25;10352427;28;20078;-63
2022/10/23 04:59:37;;;;;;;7.40;2.33;;;;;;;13.09;74.80;100254.22;10356579;28;20187;-61
2022/10/23 05:04:38;;;;;;;12.30;2.72;;;;;;;13.07;74.88;100243.63;10361668;28;20374;-62
2022/10/23 05:09:39;;;;;;;7.60;2.20;;;;;;;13.11;74.62;100246.75;10368474;28;20455;-61
2022/10/23 05:14:41;;;;;;;8.90;2.47;;;;;;;13.09;74.82;100233.47;10366998;28;20121;-63
2022/10/23 05:19:53;;;;;;;4.57;2.70;;;;;;;13.06;74.60;100238.44;10365734;28;20145;-64
2022/10/23 05:24:56;;;;;;;5.60;2.42;;;;;;;13.03;74.74;100236.09;10367965;28;20658;-60
2022/10/23 05:29:57;;;;;;;3.83;2.88;;;;;;;12.99;74.91;100237.53;10367241;28;20475;-60
2022/10/23 05:35:01;;;;;;;4.22;2.72;;;;;;;12.95;74.45;100230.84;10359950;28;20165;-61
2022/10/23 05:40:03;;;;;;;8.85;3.65;;;;;;;12.91;74.52;100241.19;10369220;28;20137;-60
2022/10/23 05:45:05;;;;;;;11.77;3.80;;;;;;;12.86;74.54;100230.16;10367168;28;20049;-63
2022/10/23 05:50:07;;;;;;;8.18;4.35;;;;;;;12.84;74.76;100213.34;10357730;28;20084;-64
2022/10/23 05:55:08;;;;;;;8.43;4.03;;;;;;;12.80;74.67;100212.91;10368158;28;20053;-60
2022/10/23 06:00:10;;;;;;;4.88;3.15;;;;;;;12.74;75.21;100202.88;10367044;28;20492;-69
2022/10/23 06:05:12;;;;;;;5.03;3.97;;;;;;;12.72;75.10;100213.03;10348768;28;20453;-69
2022/10/23 06:10:14;;;;;;;8.55;3.30;;;;;;;12.79;74.73;100200.41;10361238;28;20038;-67
2022/10/23 06:15:15;;;;;;;5.00;2.53;;;;;;;12.84;75.21;100197.97;10362805;28;20073;-68
2022/10/23 06:20:17;;;;;;;6.93;2.20;;;;;;;12.87;74.55;100191.34;10352111;28;20045;-68
2022/10/23 06:25:18;;;;;;;5.50;2.70;;;;;;;12.84;74.98;100197.16;10365123;28;20505;-68
2022/10/23 06:30:20;;;;;;;6.78;2.53;;;;;;;12.80;74.75;100196.72;10355013;28;20073;-68
2022/10/23 06:35:21;;;;;;;9.02;6.18;;;;;;;12.83;74.90;100190.06;10363970;28;20077;-68
2022/10/23 06:40:22;;;;;;;7.90;3.80;;;;;;;12.81;75.11;100197.53;10364544;28;20073;-68
2022/10/23 06:45:24;;;;;;;6.07;2.63;;;;;;;12.80;74.84;100199.41;10364911;28;20168;-68
2022/10/23 06:50:26;;;;;;;6.72;2.75;;;;;;;12.84;75.12;100192.59;10364476;28;20069;-69
2022/10/23 06:55:28;;;;;;;5.60;3.25;;;;;;;12.92;75.01;100191.63;10364815;28;20056;-67
2022/10/23 07:00:30;;;;;;;6.15;3.03;;;;;;;12.89;75.69;100198.25;10366017;28;20038;-68
2022/10/23 07:05:31;;;;;;;6.00;2.78;;;;;;;12.98;75.01;100200.81;10357759;28;20038;-68
2022/10/23 07:10:33;;;;;;;6.32;3.25;;;;;;;13.05;74.96;100189.03;10360094;28;20080;-68
2022/10/23 07:15:35;;;;;;;5.38;2.58;;;;;;;13.15;75.12;100193.22;10359852;28;20049;-69
2022/10/23 07:20:36;;;;;;;8.05;2.63;;;;;;;13.10;75.27;100193.81;10363885;28;20073;-68
2022/10/23 07:25:38;;;;;;;18.83;6.15;;;;;;;13.04;75.67;100206.25;10365175;28;20128;-68
2022/10/23 07:30:40;;;;;;;11.60;5.07;;;;;;;13.23;75.49;100196.63;10365115;28;20073;-69
2022/10/23 07:35:41;;;;;;;9.63;4.97;;;;;;;13.36;75.36;100211.28;10362392;28;20121;-69
2022/10/23 07:40:44;;;;;;;6.38;3.63;;;;;;;13.53;75.19;100198.31;10365575;28;20271;-69
2022/10/23 07:45:47;;;;;;;5.63;1.60;;;;;;;13.67;75.36;100187.34;10369003;28;20137;-69
2022/10/23 07:50:49;;;;;;;5.95;1.77;;;;;;;13.64;75.78;100190.44;10367038;28;20053;-68
2022/10/23 07:55:59;;;;;;;5.38;1.42;;;;;;;13.84;75.55;100184.31;10366614;28;20132;-68
2022/10/23 08:01:02;;;;;;;9.88;2.72;;;;;;;13.97;75.99;100186.25;10366936;28;20073;-68
2022/10/23 08:06:04;;;;;;;5.90;1.98;;;;;;;14.21;75.55;100185.69;10328561;28;20046;-69
2022/10/23 08:11:06;;;;;;;3.03;1.63;;;;;;;14.44;75.58;100168.28;10323941;28;20456;-68
2022/10/23 08:16:07;;;;;;;3.83;1.60;;;;;;;14.64;75.67;100169.16;10325531;28;20104;-69
2022/10/23 08:21:09;;;;;;;6.30;1.70;;;;;;;14.88;75.48;100178.50;10326412;28;20082;-69
2022/10/23 08:26:13;;;;;;;3.53;2.08;;;;;;;14.94;75.48;100181.44;10327750;28;20117;-69
2022/10/23 08:31:16;;;;;;;4.43;1.63;;;;;;;15.13;75.41;100167.06;10351971;28;20072;-69
2022/10/23 08:36:22;;;;;;;5.32;1.23;;;;;;;15.40;75.05;100177.81;10368125;28;20038;-68
2022/10/23 08:41:33;;;;;;;4.38;1.42;;;;;;;15.64;74.48;100165.47;10364364;28;20070;-68
2022/10/23 08:46:41;;;;;;;2.92;1.00;;;;;;;15.82;74.22;100167.53;10360217;28;20136;-69
2022/10/23 08:51:47;;;;;;;;;;;;;;;15.95;74.47;100153.88;10362625;28;20145;-69
2022/10/23 08:57:02;;;;;;;5.55;1.25;;;;;;;16.10;73.63;100148.19;10324246;28;19992;-68
2022/10/23 09:02:14;;;;;;;3.92;0.85;;;;;;;16.29;73.28;100143.72;10316413;28;20090;-68
2022/10/23 09:07:40;;;;;;;3.13;1.02;;;;;;;16.40;72.72;100156.53;10346131;28;20507;-71
2022/10/23 09:12:42;;;;;;;5.00;1.08;;;;;;;16.49;72.34;100149.00;10360004;28;20057;-69
2022/10/23 09:17:44;;;;;;;2.70;0.80;;;;;;;16.64;72.00;100149.47;10361502;28;20056;-68
2022/10/23 09:22:48;;;;;;;2.60;0.90;;;;;;;16.88;71.65;100144.31;10368127;28;20045;-68
2022/10/23 09:27:53;;;;;;;2.60;1.00;;;;;;;17.08;71.28;100121.56;10363041;28;20704;-69
2022/10/23 09:32:58;;;;;;;13.00;1.83;;;;;;;17.28;70.84;100118.63;10357582;28;20042;-69
2022/10/23 09:38:00;;;;;;;7.00;1.08;;;;;;;17.43;70.37;100125.34;10353879;28;20137;-69
2022/10/23 09:43:13;;;;;;;4.53;0.98;;;;;;;17.62;69.62;100120.75;10345679;28;20086;-69
2022/10/23 09:48:17;;;;;;;3.85;0.85;;;;;;;17.78;69.17;100115.75;10347623;28;20088;-68
2022/10/23 09:53:30;;;;;;;3.20;0.90;;;;;;;17.88;68.68;100132.38;10355327;28;20125;-68
2022/10/23 09:58:42;;;;;;;4.60;0.90;;;;;;;17.84;68.61;100132.00;10360849;28;20111;-69
2022/10/23 10:03:48;;;;;;;3.38;0.90;;;;;;;17.90;67.87;100127.53;10363892;28;20125;-67
2022/10/23 10:08:53;;;;;;;1.63;0.90;;;;;;;18.08;67.83;100123.13;10359798;28;20107;-69
2022/10/23 10:14:14;;;;;;;2.10;1.30;;;;;;;18.22;67.41;100117.22;10358372;28;20130;-69
2022/10/23 10:19:43;;;;;;;5.05;0.80;;;;;;;18.43;66.85;100104.97;10360350;28;20133;-70
2022/10/23 10:25:06;;;;;;;6.55;2.65;;;;;;;18.65;66.31;100104.44;10362033;28;20064;-68
2022/10/23 10:30:21;;;;;;;3.75;1.20;;;;;;;18.74;65.89;100103.03;10359785;28;20124;-68
2022/10/23 10:35:44;;;;;;;2.40;1.15;;;;;;;18.90;65.65;100074.28;10364266;28;20060;-70
2022/10/23 10:40:55;;;;;;;4.63;1.08;;;;;;;19.03;65.57;100065.00;10356239;28;20246;-69
2022/10/23 10:46:19;;;;;;;2.92;1.52;;;;;;;19.09;65.37;100069.50;10360416;28;20572;-68
2022/10/23 11:02:59;;;;;;;2.22;0.90;;;;;;;19.39;64.52;100060.31;10592616;22;20052;-71
2022/10/23 11:08:27;;;;;;;2.55;0.80;;;;;;;19.45;64.35;100053.94;10395238;28;20049;-71
2022/10/23 11:13:41;;;;;;;2.90;1.00;;;;;;;19.40;64.25;100048.34;10380620;28;20121;-70
2022/10/23 11:18:47;;;;;;;3.88;1.30;;;;;;;19.37;64.01;100035.19;10568478;23;20054;-61
2022/10/23 11:23:52;;;;;;;4.78;1.17;;;;;;;19.37;63.74;100027.03;10252155;28;20114;-62
2022/10/23 11:29:24;;;;;;;5.03;1.45;;;;;;;19.44;63.68;100013.25;10252046;28;20141;-61
2022/10/23 11:34:53;;;;;;;4.50;1.20;;;;;;;19.33;63.85;100018.53;10198176;29;20079;-61
2022/10/23 11:40:11;;;;;;;6.03;1.33;;;;;;;19.36;64.03;99990.75;10210598;28;20387;-61
2022/10/23 11:45:35;;;;;;;5.75;1.25;;;;;;;19.41;64.06;99995.47;10222626;28;20507;-61
2022/10/23 11:50:42;;;;;;;2.85;1.10;;;;;;;19.51;64.08;100003.03;10220738;28;20053;-60
2022/10/23 11:56:18;;;;;;;2.33;1.40;;;;;;;19.58;64.02;99998.25;10260465;28;20126;-60
2022/10/23 12:01:35;;;;;;;2.60;1.40;;;;;;;19.75;63.86;99950.06;10224702;28;20047;-61
2022/10/23 12:06:44;;;;;;;3.28;1.08;;;;;;;19.95;63.32;99959.69;10250541;28;20674;-62
2022/10/23 12:11:47;;;;;;;6.18;1.35;;;;;;;20.03;63.14;99959.25;10256598;28;20075;-64
2022/10/23 12:16:49;;;;;;;2.22;1.08;;;;;;;20.22;63.07;99976.19;10218999;28;20055;-62
2022/10/23 12:21:53;;;;;;;3.33;1.15;;;;;;;20.48;62.83;99963.78;10211434;28;20047;-64
2022/10/23 12:27:19;;;;;;;6.70;1.00;;;;;;;20.59;61.76;99946.47;10206441;28;20928;-64
2022/10/23 12:32:53;;;;;;;2.45;1.20;;;;;;;20.57;61.68;99929.47;10218122;28;20129;-63
2022/10/23 12:38:02;;;;;;;3.58;0.95;;;;;;;20.72;61.31;99914.41;10222365;29;20055;-63
2022/10/23 12:43:21;;;;;;;3.40;1.30;;;;;;;20.89;61.38;99908.88;10208427;28;20074;-62
2022/10/23 12:48:23;;;;;;;2.97;1.02;;;;;;;21.09;60.45;99908.28;10209587;28;20044;-62
2022/10/23 12:53:25;;;;;;;1.95;0.90;;;;;;;21.25;60.68;99899.16;10210794;28;20044;-63
2022/10/23 12:58:32;;;;;;;4.30;1.00;;;;;;;21.24;59.70;99880.28;10210496;29;20040;-63
2022/10/23 13:03:34;;;;;;;2.20;0.80;;;;;;;21.14;60.34;99873.63;10206449;28;20122;-64
2022/10/23 13:08:45;;;;;;;4.00;1.17;;;;;;;21.34;60.06;99863.97;10210384;28;20067;-64
2022/10/23 13:13:48;;;;;;;2.65;1.00;;;;;;;21.46;59.54;99861.91;10209565;28;20143;-64
2022/10/23 13:18:50;;;;;;;3.47;0.82;;;;;;;21.54;59.40;99846.94;10205256;28;20062;-65
2022/10/23 13:23:52;;;;;;;3.63;0.77;;;;;;;21.52;59.35;99846.38;10207915;28;20134;-63
2022/10/23 13:28:54;;;;;;;3.75;0.70;;;;;;;21.66;59.07;99835.81;10207215;28;20160;-64
2022/10/23 13:33:58;;;;;;;7.40;0.70;;;;;;;21.79;58.82;99825.25;10220495;28;20141;-64
2022/10/23 13:39:13;;;;;;;2.83;0.57;;;;;;;21.87;57.91;99813.00;10206908;28;20047;-63
2022/10/23 13:44:17;;;;;;;3.38;0.80;;;;;;;21.98;58.76;99811.97;10209474;28;20048;-63
2022/10/23 13:49:19;;;;;;;2.25;0.90;;;;;;;22.12;58.49;99808.75;10207748;28;20133;-63
2022/10/23 13:54:26;;;;;;;2.60;0.65;;;;;;;22.23;57.87;99791.28;10215768;28;20059;-61
2022/10/23 13:59:32;;;;;;;2.25;0.60;;;;;;;22.28;58.12;99805.03;10215453;28;20074;-62
2022/10/23 14:04:34;;;;;;;1.95;0.60;;;;;;;22.28;57.73;99782.31;10206887;29;20129;-62
2022/10/23 14:09:35;;;;;;;3.35;0.82;;;;;;;22.27;58.30;99780.66;10213398;28;20130;-61
2022/10/23 14:14:37;;;;;;;8.32;2.00;;;;;;;22.27;57.67;99775.19;10203647;28;20054;-62
2022/10/23 14:19:38;;;;;;;4.03;0.75;;;;;;;22.24;58.01;99786.66;10208321;28;20393;-62
2022/10/23 14:24:40;;;;;;;3.40;0.70;;;;;;;22.22;57.99;99786.91;10202101;28;20125;-63
2022/10/23 14:29:41;;;;;;;5.15;1.27;;;;;;;22.21;57.84;99784.44;10202584;28;20130;-61
2022/10/23 14:34:44;;;;;;;1.98;0.95;;;;;;;22.12;57.80;99778.66;10202269;29;20151;-63
2022/10/23 14:39:46;;;;;;;1.52;0.60;;;;;;;22.10;57.60;99765.22;10200870;28;20568;-63
2022/10/23 14:44:50;;;;;;;1.83;0.70;;;;;;;22.10;57.49;99764.41;10206024;28;20405;-63
2022/10/23 14:49:52;;;;;;;2.78;1.08;;;;;;;22.09;57.25;99743.59;10200172;29;20052;-62
2022/10/23 14:54:53;;;;;;;3.92;0.90;;;;;;;22.03;57.77;99753.69;10205878;28;20187;-60
2022/10/23 14:59:55;;;;;;;1.88;0.70;;;;;;;21.97;57.08;99743.81;10205507;28;20074;-63
2022/10/23 15:04:56;;;;;;;1.60;0.70;;;;;;;21.88;57.06;99746.25;10206410;28;20057;-61
2022/10/23 15:09:57;;;;;;;3.70;0.70;;;;;;;21.78;57.67;99741.53;10200286;28;20139;-62
2022/10/23 15:14:59;;;;;;;2.58;1.45;;;;;;;21.74;57.77;99718.53;10204260;28;20054;-64
2022/10/23 15:20:00;;;;;;;3.22;1.95;;;;;;;21.66;58.42;99713.53;10206533;28;20068;-62
2022/10/23 15:25:02;;;;;;;2.45;1.70;;;;;;;21.55;59.00;99701.72;10201901;28;20055;-63
2022/10/23 15:30:04;;;;;;;5.97;1.80;;;;;;;21.36;59.24;99701.28;10194157;28;20074;-60
2022/10/23 15:35:05;;;;;;;4.38;1.92;;;;;;;21.26;59.54;99690.28;10209477;28;20134;-62
2022/10/23 15:40:07;;;;;;;3.55;1.60;;;;;;;21.19;59.72;99684.25;10212026;28;20143;-62
2022/10/23 15:45:11;;;;;;;2.67;1.40;;;;;;;20.99;59.82;99702.13;10208182;28;20059;-63
2022/10/23 15:50:13;;;;;;;2.75;1.63;;;;;;;20.92;60.11;99676.13;10199509;28;20134;-65
2022/10/23 15:55:14;;;;;;;9.02;3.40;;;;;;;20.86;60.46;99671.69;10214742;28;20051;-62
2022/10/23 16:00:16;;;;;;;9.55;2.88;;;;;;;20.75;60.68;99652.50;10220521;28;20730;-61
2022/10/23 16:05:20;;;;;;;11.75;6.35;;;;;;;20.63;61.73;99656.47;10213060;28;20092;-61
2022/10/23 16:10:23;;;;;;;12.35;4.50;;;;;;;20.45;62.02;99649.44;10207379;28;20080;-60
2022/10/23 16:15:25;;;;;;;8.25;5.07;;;;;;;20.36;62.30;99643.66;10213948;28;20130;-61
2022/10/23 16:20:26;;;;;;;7.68;4.45;;;;;;;20.23;63.02;99650.31;10212447;28;20135;-62
2022/10/23 16:25:28;;;;;;;7.63;4.35;;;;;;;20.18;62.97;99637.47;10236224;28;20043;-59
2022/10/23 16:30:29;;;;;;;12.70;6.72;;;;;;;20.10;63.60;99637.94;10208321;28;20044;-60
2022/10/23 16:35:31;;;;;;;9.75;5.57;;;;;;;19.95;64.10;99641.28;10202617;28;20134;-59
2022/10/23 16:40:32;;;;;;;17.27;5.63;;;;;;;19.78;64.62;99655.00;10210648;28;20045;-60
2022/10/23 16:45:33;;;;;;;11.20;5.57;;;;;;;19.78;64.62;99659.63;10205284;28;20052;-61
2022/10/23 16:50:39;;;;;;;5.97;4.93;;;;;;;19.73;64.68;99648.69;10216329;28;20134;-59
2022/10/23 16:55:40;;;;;;;8.52;5.07;;;;;;;19.63;65.00;99660.25;10204349;29;20506;-59
2022/10/23 17:00:42;;;;;;;8.35;4.13;;;;;;;19.57;65.18;99653.91;10203586;28;20482;-59
2022/10/23 17:05:43;;;;;;;10.65;6.13;;;;;;;19.53;65.37;99641.84;10203286;28;20051;-59
2022/10/23 17:10:44;;;;;;;10.50;5.22;;;;;;;19.49;65.46;99628.94;10211410;28;20138;-59
2022/10/23 17:15:46;;;;;;;14.02;4.47;;;;;;;19.44;65.66;99615.28;10199055;28;20059;-59
2022/10/23 17:20:55;;;;;;;6.35;3.78;;;;;;;19.15;66.42;99616.22;10205915;28;20072;-59
2022/10/23 17:25:56;;;;;;;10.70;7.85;;;;;;;19.02;66.92;99611.97;10211262;28;20047;-59
2022/10/23 17:30:58;;;;;;;17.05;7.15;;;;;;;19.06;66.89;99604.13;10204613;28;20484;-59
2022/10/23 17:36:01;;;;;;;17.90;8.63;;;;;;;19.06;67.02;99601.41;10208229;28;20056;-60
2022/10/23 17:41:04;;;;;;;18.17;12.10;;;;;;;18.99;67.28;99614.38;10213261;28;20146;-59
2022/10/23 17:46:07;;;;;;;16.33;8.13;;;;;;;18.87;67.88;99652.59;10199760;28;20106;-59
2022/10/23 17:51:20;;;;;;;10.95;5.22;;;;;;;18.64;68.52;99678.03;10210703;28;20053;-59
2022/10/23 17:56:24;;;;;;;9.95;3.85;;;;;;;18.29;69.84;99812.38;10214959;28;20565;-60
2022/10/23 18:01:27;;;;;;;10.55;3.97;;;;;;;17.61;72.65;99821.97;10225442;28;20472;-60
2022/10/23 18:06:31;;;;;;;7.20;2.22;;;;;;;17.36;73.89;99808.63;10216538;28;20047;-62
2022/10/23 18:11:36;;;;;;;8.10;3.40;;;;;;;17.29;74.75;99797.84;10212686;28;20126;-63
2022/10/23 18:16:39;;;;;;;11.07;2.80;;;;;;;17.30;75.41;99801.38;10212629;28;20054;-63
2022/10/23 18:21:40;;;;;;;5.65;2.55;;;;;;;17.22;75.90;99813.44;10202541;28;20062;-61
2022/10/23 18:26:42;;;;;;;9.48;3.20;;;;;;;17.23;76.51;99802.31;10216780;28;20075;-61
2022/10/23 18:31:44;;;;;;;5.57;2.70;;;;;;;17.18;76.96;99794.06;10230500;28;20588;-62
2022/10/23 18:36:47;;;;;;;5.43;2.70;;;;;;;17.24;77.22;99797.72;10221709;28;20135;-61
2022/10/23 18:41:51;;;;;;;5.63;3.10;;;;;;;17.29;77.44;99807.88;10206608;28;20058;-61
2022/10/23 18:46:54;;;;;;;10.32;2.95;;;;;;;17.30;77.98;99809.53;10237560;28;20145;-61
2022/10/23 18:51:57;;;;;;;8.95;4.13;;;;;;;17.33;78.11;99787.34;10210203;28;20585;-61
2022/10/23 18:56:58;;;;;;;12.43;4.60;;;;;;;17.43;77.83;99774.00;10200178;28;20107;-61
2022/10/23 19:01:59;;;;;;;12.52;5.28;;;;;;;17.53;77.97;99738.06;10210289;28;20070;-62
2022/10/23 19:07:01;;;;;;;11.68;4.80;;;;;;;17.56;77.75;99719.41;10211461;28;20568;-61
2022/10/23 19:12:04;;;;;;;13.60;5.32;;;;;;;17.54;77.96;99720.72;10201000;29;20126;-61
2022/10/23 19:17:28;;;;;;;8.40;4.60;;;;;;;17.42;78.38;99726.97;10203521;28;20048;-61
2022/10/23 19:22:33;;;;;;;16.13;6.65;;;;;;;17.44;78.02;99724.03;10243824;28;20035;-61
2022/10/23 19:27:35;;;;;;;14.80;6.28;;;;;;;17.43;78.03;99738.66;10205799;28;20138;-61
2022/10/23 19:32:36;;;;;;;9.77;5.63;;;;;;;17.30;78.49;99760.63;10207441;28;20058;-61
2022/10/23 19:37:38;;;;;;;16.05;6.80;;;;;;;17.33;78.27;99762.88;10215003;28;20158;-61
2022/10/23 19:42:40;;;;;;;18.13;7.28;;;;;;;17.34;78.14;99756.41;10212630;28;20581;-61
2022/10/23 19:47:42;;;;;;;16.10;7.32;;;;;;;17.39;77.87;99759.22;10211806;28;20134;-60
2022/10/23 19:52:44;;;;;;;14.48;7.80;;;;;;;17.35;77.86;99758.03;10215887;28;20051;-60
2022/10/23 19:57:45;;;;;;;17.40;8.05;;;;;;;17.22;78.37;99776.22;10205462;28;20766;-63
2022/10/23 20:02:47;;;;;;;20.88;8.52;;;;;;;17.35;78.00;99777.88;10202461;28;20577;-60
2022/10/23 20:07:53;;;;;;;25.42;9.77;;;;;;;17.40;77.81;99772.56;10213398;28;20073;-60
2022/10/23 20:12:55;;;;;;;21.35;8.35;;;;;;;17.39;77.84;99775.53;10212462;28;20122;-60
2022/10/23 20:18:15;;;;;;;17.80;8.40;;;;;;;17.29;78.35;99802.44;10209408;28;20054;-60
2022/10/23 20:23:16;;;;;;;24.02;9.52;;;;;;;17.21;78.90;99807.16;10217422;28;20376;-60
2022/10/23 20:28:18;;;;;;;24.20;9.57;;;;;;;17.34;78.46;99791.72;10213800;28;20143;-60
2022/10/23 20:33:19;;;;;;;25.77;9.60;;;;;;;17.36;78.41;99806.72;10213418;28;20146;-60
2022/10/23 20:38:21;;;;;;;23.67;9.48;;;;;;;17.37;78.18;99799.38;10210113;28;20047;-60
2022/10/23 20:43:23;;;;;;;20.17;9.68;;;;;;;17.35;78.47;99793.38;10217047;28;20459;-60
2022/10/23 20:48:24;;;;;;;21.83;9.05;;;;;;;17.36;78.50;99797.75;10198231;28;20142;-60
2022/10/23 20:53:25;;;;;;;19.23;10.18;;;;;;;17.34;78.42;99797.16;10211199;28;20761;-60
2022/10/23 20:58:27;;;;;;;31.13;11.20;;;;;;;17.33;78.50;99790.88;10207178;28;20059;-60
2022/10/23 21:03:28;;;;;;;25.50;12.45;;;;;;;17.32;78.30;99800.09;10208695;28;20142;-60
2022/10/23 21:08:30;;;;;;;29.02;13.00;;;;;;;17.28;78.33;99793.47;10202439;28;20608;-60
2022/10/23 21:13:31;;;;;;;33.22;13.93;;;;;;;17.22;78.37;99802.56;10214028;28;20075;-60
2022/10/23 21:18:33;;;;;;;29.40;11.50;;;;;;;17.16;78.39;99798.03;10208940;28;20062;-60
2022/10/23 21:23:47;;;;;;;21.15;9.90;;;;;;;17.10;78.53;99807.97;10204710;28;20419;-60
2022/10/23 21:28:51;;;;;;;19.17;9.95;;;;;;;17.08;78.65;99807.38;10203942;28;20059;-60
2022/10/23 21:34:07;;;;;;;26.02;11.98;;;;;;;17.08;78.40;99809.25;10211489;28;20056;-60
2022/10/23 21:39:08;;;;;;;28.20;11.43;;;;;;;17.00;78.52;99794.09;10208759;28;20062;-60
2022/10/23 21:44:12;;;;;;;30.13;12.57;;;;;;;16.94;78.58;99798.59;10206355;28;20075;-60
2022/10/23 21:49:13;;;;;;;21.80;11.73;;;;;;;16.91;78.54;99811.81;10209435;28;20122;-60
2022/10/23 21:54:15;;;;;;;25.42;12.55;;;;;;;16.86;78.62;99817.91;10212286;28;20159;-60
2022/10/23 21:59:22;;;;;;;26.33;12.23;;;;;;;16.81;78.45;99829.47;10211208;28;20583;-60
2022/10/23 22:04:24;;;;;;;27.85;12.35;;;;;;;16.76;78.47;99831.19;10208366;28;20104;-60
2022/10/23 22:09:25;;;;;;;29.73;11.88;;;;;;;16.68;78.38;99823.34;10207088;28;20071;-60
2022/10/23 22:14:27;;;;;;;26.88;11.80;;;;;;;16.64;78.59;99823.81;10201562;28;20126;-60
2022/10/23 22:19:28;;;;;;;29.73;10.90;;;;;;;16.62;78.72;99822.38;10203247;28;20407;-60
2022/10/23 22:24:29;;;;;;;24.38;10.52;;;;;;;16.56;78.61;99837.69;10197024;28;20067;-60
2022/10/23 22:29:31;;;;;;;27.67;10.55;;;;;;;16.53;78.63;99830.03;10211530;28;20045;-60
2022/10/23 22:34:32;;;;;;;24.15;10.05;;;;;;;16.52;78.62;99822.94;10203361;28;20147;-60
2022/10/23 22:39:52;;;;;;;24.98;10.48;;;;;;;16.49;78.47;99826.09;10211951;28;20055;-60
2022/10/23 22:44:54;;;;;;;20.35;10.18;;;;;;;16.45;78.60;99820.31;10200385;28;20067;-60
2022/10/23 22:49:55;;;;;;;25.95;11.15;;;;;;;16.39;78.73;99829.34;10213113;28;20043;-60
2022/10/23 22:54:57;;;;;;;23.20;10.55;;;;;;;16.35;78.93;99833.59;10204728;28;20070;-60
2022/10/23 22:59:58;;;;;;;28.63;11.55;;;;;;;16.33;79.14;99837.56;10203860;28;20067;-60
2022/10/23 23:04:59;;;;;;;21.70;10.45;;;;;;;16.35;78.97;99852.56;10203451;28;20040;-60
2022/10/23 23:10:01;;;;;;;22.08;10.95;;;;;;;16.36;78.99;99856.09;10204739;28;20146;-60
2022/10/23 23:15:03;;;;;;;28.08;10.45;;;;;;;16.35;78.84;99852.56;10204331;28;20162;-60
2022/10/23 23:20:05;;;;;;;23.40;10.60;;;;;;;16.31;78.73;99856.78;10213701;28;20068;-60
2022/10/23 23:25:07;;;;;;;24.48;10.25;;;;;;;16.22;78.79;99855.44;10218280;28;20530;-60
2022/10/23 23:30:09;;;;;;;39.40;11.70;;;;;;;16.16;78.43;99849.00;10201995;28;20142;-60
2022/10/23 23:35:10;;;;;;;23.83;9.50;;;;;;;16.08;78.59;99845.78;10211091;28;20143;-61
2022/10/23 23:40:12;;;;;;;25.85;9.60;;;;;;;16.02;78.64;99845.59;10213536;28;20719;-60